sim
Sign-in with your pilot id or email,
or register
Callsign
Passwort

Schedule Details

Flight Number: RYR5143 (1)
Departure: Thessaloniki International Airport (LGTS) at 04:55
Arrival: Karlsruhe/Baden-Baden Airport (EDSB) at 07:40
Route: Ryanair Passenger Schedule. Enter filed route here before submitting Pirep.

Weather Information
Getting current METAR information for LGTS 252220Z VRB02KT CAVOK 15/12 Q1020 NOSIG
Getting current METAR information for EDSB 252220Z AUTO 17004KT 140V210 9999 OVC048/// 11/06 Q1011

Schedule Frequency

Route Map